PWSweather.com
Personal Weather Stations
Station Observations
SHAHALMS1
Eftra, Falkenberg, HA

EftraFalkenberg, HA

Lat: 56.85, Lon: 12.65

Elevation: 140

Station Type:

http://hem.passagen.se/risarp101

Latest ConditionsUpdated 7:30:02 PM GMT+1 Tuesday, Nov 12, 2019
Currently Today's Max Today's Min Today's Average
Temperature 43.2°F6.2°C 43.3°F6.3°C 39.4°F4.1°C 41.6°F5.3°C
Dew Point 35.8°F2.1°C 39.6°F4.2°C 34.3°F1.3°C 36.3°F2.4°C
Winds 5.6 mph S9.0 kmh S 10.0 mph -16.1 kmh - - 6.4 mph 10.3 kmh
Wind Gusts 14.0 mph22.5 kmh 24.7 mph39.8 kmh - -
Humidity 75% 89% 75% 81%
Pressure 29.65 in1004.1 mb 29.68 in1005.1 mb 29.53 in1000.0 mb -
Precipitation - 0.14 in3.6 mm - -
Hour Temp Dew Point Humidity Winds Wind Gusts Pressure Precip Precip Rate Daily Precip Total
07:30 PM 43.2°F6.2°C 35.8°F2.1°C 75% 5.6 mph S9.0 kmh S 14.0 mph22.5 kmh 29.65 in1004.1 mb 0.00 in0.0 mm 0.00 in0.0 mm 0.14 in3.6 mm
07:20 PM 43.2°F6.2°C 35.8°F2.1°C 75% 5.2 mph S8.4 kmh S 11.8 mph19.0 kmh 29.62 in1003.0 mb 0.00 in0.0 mm 0.00 in0.0 mm 0.14 in3.6 mm
07:10 PM 43.3°F6.3°C 35.9°F2.2°C 75% 4.7 mph S7.6 kmh S 12.5 mph20.1 kmh 29.62 in1003.0 mb 0.00 in0.0 mm 0.00 in0.0 mm 0.14 in3.6 mm
07:00 PM 43.3°F6.3°C 35.9°F2.2°C 75% 7.2 mph S11.6 kmh S 22.2 mph35.7 kmh 29.62 in1003.0 mb 0.00 in0.0 mm 0.00 in0.0 mm 0.14 in3.6 mm
06:50 PM 43.2°F6.2°C 36.1°F2.3°C 76% 4.6 mph S7.4 kmh S 14.0 mph22.5 kmh 29.62 in1003.0 mb 0.00 in0.0 mm 0.00 in0.0 mm 0.14 in3.6 mm
06:40 PM 43.2°F6.2°C 36.4°F2.4°C 77% 5.7 mph S9.2 kmh S 20.4 mph32.8 kmh 29.62 in1003.0 mb 0.00 in0.0 mm 0.00 in0.0 mm 0.14 in3.6 mm
06:30 PM 43.2°F6.2°C 36.4°F2.4°C 77% 4.5 mph S7.2 kmh S 12.5 mph20.1 kmh 29.59 in1002.0 mb 0.00 in0.0 mm 0.00 in0.0 mm 0.14 in3.6 mm
06:20 PM 43.3°F6.3°C 36.6°F2.6°C 77% 5.8 mph S9.3 kmh S 14.0 mph22.5 kmh 29.59 in1002.0 mb 0.00 in0.0 mm 0.00 in0.0 mm 0.14 in3.6 mm
06:10 PM 43.3°F6.3°C 36.6°F2.6°C 77% 7.0 mph S11.3 kmh S 16.1 mph25.9 kmh 29.59 in1002.0 mb 0.00 in0.0 mm 0.00 in0.0 mm 0.14 in3.6 mm
06:00 PM 43.3°F6.3°C 36.6°F2.6°C 77% 8.3 mph S13.4 kmh S 24.3 mph39.1 kmh 29.59 in1002.0 mb 0.00 in0.0 mm 0.00 in0.0 mm 0.14 in3.6 mm
05:50 PM 43.3°F6.3°C 36.9°F2.7°C 78% 7.7 mph S12.4 kmh S 16.1 mph25.9 kmh 29.59 in1002.0 mb 0.00 in0.0 mm 0.00 in0.0 mm 0.14 in3.6 mm
05:40 PM 43.3°F6.3°C 36.9°F2.7°C 78% 6.5 mph S10.5 kmh S 11.5 mph18.5 kmh 29.59 in1002.0 mb 0.00 in0.0 mm 0.00 in0.0 mm 0.14 in3.6 mm
05:30 PM 43.3°F6.3°C 36.6°F2.6°C 77% 6.5 mph S10.5 kmh S 20.4 mph32.8 kmh 29.59 in1002.0 mb 0.00 in0.0 mm 0.00 in0.0 mm 0.14 in3.6 mm
05:20 PM 43.3°F6.3°C 36.6°F2.6°C 77% 7.6 mph S12.2 kmh S 17.5 mph28.2 kmh 29.56 in1001.0 mb 0.00 in0.0 mm 0.00 in0.0 mm 0.14 in3.6 mm
05:10 PM 43.3°F6.3°C 36.6°F2.6°C 77% 7.8 mph S12.6 kmh S 24.7 mph39.8 kmh 29.56 in1001.0 mb 0.00 in0.0 mm 0.00 in0.0 mm 0.14 in3.6 mm
05:00 PM 43.2°F6.2°C 36.4°F2.4°C 77% 6.2 mph S10.0 kmh S 16.1 mph25.9 kmh 29.59 in1002.0 mb 0.00 in0.0 mm 0.00 in0.0 mm 0.14 in3.6 mm
04:50 PM 43.2°F6.2°C 36.4°F2.4°C 77% 7.3 mph S11.7 kmh S 20.0 mph32.2 kmh 29.59 in1002.0 mb 0.00 in0.0 mm 0.00 in0.0 mm 0.14 in3.6 mm
04:40 PM 43.2°F6.2°C 36.4°F2.4°C 77% 6.1 mph S9.8 kmh S 14.0 mph22.5 kmh 29.59 in1002.0 mb 0.00 in0.0 mm 0.00 in0.0 mm 0.14 in3.6 mm
04:30 PM 43.2°F6.2°C 36.4°F2.4°C 77% 8.6 mph S13.8 kmh S 20.4 mph32.8 kmh 29.59 in1002.0 mb 0.00 in0.0 mm 0.00 in0.0 mm 0.14 in3.6 mm
04:20 PM 43.2°F6.2°C 36.8°F2.7°C 78% 8.2 mph S13.2 kmh S 24.7 mph39.8 kmh 29.59 in1002.0 mb 0.00 in0.0 mm 0.00 in0.0 mm 0.14 in3.6 mm
04:10 PM 43.2°F6.2°C 37.1°F2.8°C 79% 7.8 mph S12.6 kmh S 17.2 mph27.7 kmh 29.59 in1002.0 mb 0.00 in0.0 mm 0.00 in0.0 mm 0.14 in3.6 mm
04:00 PM 43.2°F6.2°C 37.1°F2.8°C 79% 6.8 mph S10.9 kmh S 17.5 mph28.2 kmh 29.59 in1002.0 mb 0.00 in0.0 mm 0.00 in0.0 mm 0.14 in3.6 mm
03:50 PM 43.0°F6.1°C 37.2°F2.9°C 80% 6.7 mph S10.8 kmh S 13.6 mph21.9 kmh 29.56 in1001.0 mb 0.00 in0.0 mm 0.00 in0.0 mm 0.14 in3.6 mm
03:40 PM 43.0°F6.1°C 37.5°F3.1°C 81% 5.0 mph S8.0 kmh S 12.9 mph20.8 kmh 29.56 in1001.0 mb 0.00 in0.0 mm 0.00 in0.0 mm 0.14 in3.6 mm
03:30 PM 43.0°F6.1°C 37.9°F3.3°C 82% 7.2 mph S11.6 kmh S 20.8 mph33.5 kmh 29.56 in1001.0 mb 0.00 in0.0 mm 0.00 in0.0 mm 0.14 in3.6 mm
03:20 PM 43.0°F6.1°C 38.2°F3.4°C 83% 5.6 mph SSE9.0 kmh SSE 15.4 mph24.8 kmh 29.56 in1001.0 mb 0.00 in0.0 mm 0.00 in0.0 mm 0.14 in3.6 mm
03:10 PM 43.0°F6.1°C 38.2°F3.4°C 83% 2.1 mph SSE3.4 kmh SSE 11.1 mph17.9 kmh 29.56 in1001.0 mb 0.00 in0.0 mm 0.00 in0.0 mm 0.14 in3.6 mm
03:00 PM 43.0°F6.1°C 38.2°F3.4°C 83% 3.6 mph SSE5.8 kmh SSE 10.4 mph16.7 kmh 29.53 in1000.0 mb 0.00 in0.0 mm 0.00 in0.0 mm 0.14 in3.6 mm
02:50 PM 43.0°F6.1°C 38.5°F3.6°C 84% 4.2 mph SE6.8 kmh SE 8.9 mph14.3 kmh 29.56 in1001.0 mb 0.00 in0.0 mm 0.00 in0.0 mm 0.14 in3.6 mm
02:40 PM 43.0°F6.1°C 38.8°F3.8°C 85% 4.3 mph S6.9 kmh S 10.4 mph16.7 kmh 29.56 in1001.0 mb 0.00 in0.0 mm 0.00 in0.0 mm 0.14 in3.6 mm
02:30 PM 42.8°F6.0°C 38.9°F3.8°C 86% 4.2 mph SSE6.8 kmh SSE 10.0 mph16.1 kmh 29.56 in1001.0 mb 0.00 in0.0 mm 0.00 in0.0 mm 0.14 in3.6 mm
02:20 PM 42.8°F6.0°C 39.2°F4.0°C 87% 5.0 mph SSE8.0 kmh SSE 10.4 mph16.7 kmh 29.56 in1001.0 mb 0.00 in0.0 mm 0.00 in0.0 mm 0.14 in3.6 mm
02:10 PM 42.8°F6.0°C 39.5°F4.2°C 88% 3.1 mph SSE5.0 kmh SSE 8.6 mph13.8 kmh 29.56 in1001.0 mb 0.00 in0.0 mm 0.00 in0.0 mm 0.14 in3.6 mm
02:00 PM 42.8°F6.0°C 39.5°F4.2°C 88% 4.0 mph SE6.4 kmh SE 10.4 mph16.7 kmh 29.53 in1000.0 mb 0.00 in0.0 mm 0.00 in0.0 mm 0.14 in3.6 mm
01:50 PM 42.6°F5.9°C 39.6°F4.2°C 89% 4.7 mph SE7.6 kmh SE 11.5 mph18.5 kmh 29.53 in1000.0 mb 0.00 in0.0 mm 0.00 in0.0 mm 0.14 in3.6 mm
01:40 PM 42.3°F5.7°C 39.2°F4.0°C 89% 4.0 mph SSE6.4 kmh SSE 9.7 mph15.6 kmh 29.53 in1000.0 mb 0.00 in0.0 mm 0.00 in0.0 mm 0.14 in3.6 mm
01:30 PM 42.3°F5.7°C 39.2°F4.0°C 89% 3.9 mph SSE6.3 kmh SSE 8.6 mph13.8 kmh 29.56 in1001.0 mb 0.00 in0.0 mm 0.00 in0.0 mm 0.14 in3.6 mm
01:20 PM 41.9°F5.5°C 38.9°F3.8°C 89% 4.6 mph S7.4 kmh S 10.4 mph16.7 kmh 29.53 in1000.0 mb 0.00 in0.0 mm 0.00 in0.0 mm 0.14 in3.6 mm
01:10 PM 41.5°F5.3°C 38.3°F3.5°C 88% 1.2 mph SE1.9 kmh SE 6.8 mph10.9 kmh 29.53 in1000.0 mb 0.00 in0.0 mm 0.00 in0.0 mm 0.14 in3.6 mm
01:00 PM 41.5°F5.3°C 38.3°F3.5°C 88% 3.3 mph SE5.3 kmh SE 11.8 mph19.0 kmh 29.56 in1001.0 mb 0.00 in0.0 mm 0.00 in0.0 mm 0.14 in3.6 mm
12:50 PM 41.4°F5.2°C 38.1°F3.4°C 88% 5.1 mph SE8.2 kmh SE 9.7 mph15.6 kmh 29.56 in1001.0 mb 0.00 in0.0 mm 0.00 in0.0 mm 0.14 in3.6 mm
12:40 PM 41.4°F5.2°C 38.1°F3.4°C 88% 3.6 mph SE5.8 kmh SE 11.8 mph19.0 kmh 29.56 in1001.0 mb 0.00 in0.0 mm 0.00 in0.0 mm 0.14 in3.6 mm
12:30 PM 41.2°F5.1°C 37.9°F3.3°C 88% 4.7 mph SE7.6 kmh SE 12.5 mph20.1 kmh 29.53 in1000.0 mb 0.00 in0.0 mm 0.00 in0.0 mm 0.14 in3.6 mm
12:20 PM 41.2°F5.1°C 37.9°F3.3°C 88% 5.8 mph SE9.3 kmh SE 13.6 mph21.9 kmh 29.53 in1000.0 mb 0.00 in0.0 mm 0.00 in0.0 mm 0.14 in3.6 mm
12:10 PM 41.2°F5.1°C 37.9°F3.3°C 88% 6.8 mph E10.9 kmh E 16.5 mph26.6 kmh 29.53 in1000.0 mb 0.00 in0.0 mm 0.00 in0.0 mm 0.14 in3.6 mm
12:00 PM 41.2°F5.1°C 37.6°F3.1°C 87% 6.3 mph SE10.1 kmh SE 15.4 mph24.8 kmh 29.56 in1001.0 mb 0.00 in0.0 mm 0.00 in0.0 mm 0.14 in3.6 mm
11:50 AM 41.2°F5.1°C 37.6°F3.1°C 87% 7.2 mph SE11.6 kmh SE 12.5 mph20.1 kmh 29.53 in1000.0 mb 0.00 in0.0 mm 0.00 in0.0 mm 0.14 in3.6 mm
11:40 AM 41.2°F5.1°C 37.6°F3.1°C 87% 5.7 mph SE9.2 kmh SE 13.6 mph21.9 kmh 29.53 in1000.0 mb 0.05 in1.3 mm 0.00 in0.0 mm 0.14 in3.6 mm
11:30 AM 41.4°F5.2°C 37.8°F3.2°C 87% 6.1 mph SE9.8 kmh SE 15.0 mph24.1 kmh 29.56 in1001.0 mb 0.05 in1.3 mm 0.00 in0.0 mm 0.14 in3.6 mm
11:20 AM 41.2°F5.1°C 37.6°F3.1°C 87% 6.2 mph SE10.0 kmh SE 15.0 mph24.1 kmh 29.56 in1001.0 mb 0.05 in1.3 mm 0.00 in0.0 mm 0.14 in3.6 mm
11:10 AM 41.2°F5.1°C 37.6°F3.1°C 87% 6.7 mph SE10.8 kmh SE 17.9 mph28.8 kmh 29.56 in1001.0 mb 0.05 in1.3 mm 0.00 in0.0 mm 0.14 in3.6 mm
11:00 AM 41.0°F5.0°C 37.1°F2.8°C 86% 7.3 mph SSE11.7 kmh SSE 16.8 mph27.0 kmh 29.59 in1002.0 mb 0.05 in1.3 mm 0.00 in0.0 mm 0.14 in3.6 mm
10:50 AM 41.0°F5.0°C 37.1°F2.8°C 86% 7.3 mph SSE11.7 kmh SSE 16.5 mph26.6 kmh 29.59 in1002.0 mb 0.09 in2.3 mm 0.24 in6.1 mm 0.14 in3.6 mm
10:40 AM 41.0°F5.0°C 37.1°F2.8°C 86% 7.8 mph SSE12.6 kmh SSE 22.5 mph36.2 kmh 29.59 in1002.0 mb 0.05 in1.3 mm 0.00 in0.0 mm 0.09 in2.3 mm
10:30 AM 41.0°F5.0°C 36.8°F2.7°C 85% 6.2 mph SSE10.0 kmh SSE 17.2 mph27.7 kmh 29.56 in1001.0 mb 0.05 in1.3 mm 0.00 in0.0 mm 0.09 in2.3 mm
10:20 AM 41.0°F5.0°C 36.8°F2.7°C 85% 5.8 mph SE9.3 kmh SE 15.7 mph25.3 kmh 29.56 in1001.0 mb 0.05 in1.3 mm 0.00 in0.0 mm 0.09 in2.3 mm
10:10 AM 41.0°F5.0°C 36.5°F2.5°C 84% 6.2 mph SSE10.0 kmh SSE 14.0 mph22.5 kmh 29.56 in1001.0 mb 0.09 in2.3 mm 0.00 in0.0 mm 0.09 in2.3 mm
10:00 AM 41.0°F5.0°C 36.5°F2.5°C 84% 5.1 mph SSE8.2 kmh SSE 12.2 mph19.6 kmh 29.56 in1001.0 mb 0.09 in2.3 mm 0.05 in1.3 mm 0.09 in2.3 mm
09:50 AM 41.0°F5.0°C 36.2°F2.3°C 83% 6.1 mph S9.8 kmh S 12.9 mph20.8 kmh 29.56 in1001.0 mb 0.05 in1.3 mm 0.00 in0.0 mm 0.05 in1.3 mm
09:40 AM 41.0°F5.0°C 36.2°F2.3°C 83% 5.7 mph SSE9.2 kmh SSE 13.6 mph21.9 kmh 29.56 in1001.0 mb 0.05 in1.3 mm 0.00 in0.0 mm 0.05 in1.3 mm
09:30 AM 41.0°F5.0°C 35.9°F2.2°C 82% 5.4 mph SE8.7 kmh SE 10.7 mph17.2 kmh 29.56 in1001.0 mb 0.05 in1.3 mm 0.00 in0.0 mm 0.05 in1.3 mm
09:20 AM 41.0°F5.0°C 35.6°F2.0°C 81% 7.1 mph SE11.4 kmh SE 12.9 mph20.8 kmh 29.56 in1001.0 mb 0.05 in1.3 mm 0.30 in7.6 mm 0.05 in1.3 mm
09:10 AM 41.2°F5.1°C 35.5°F1.9°C 80% 6.7 mph SE10.8 kmh SE 14.0 mph22.5 kmh 29.56 in1001.0 mb 0.00 in0.0 mm 0.00 in0.0 mm 0.00 in0.0 mm
09:00 AM 41.4°F5.2°C 35.3°F1.8°C 79% 7.7 mph SSE12.4 kmh SSE 22.5 mph36.2 kmh 29.56 in1001.0 mb 0.00 in0.0 mm 0.00 in0.0 mm 0.00 in0.0 mm
08:50 AM 41.7°F5.4°C 35.4°F1.9°C 78% 7.7 mph SSE12.4 kmh SSE 16.8 mph27.0 kmh 29.56 in1001.0 mb 0.00 in0.0 mm 0.00 in0.0 mm 0.00 in0.0 mm
08:40 AM 41.7°F5.4°C 35.0°F1.7°C 77% 6.9 mph S11.1 kmh S 22.9 mph36.9 kmh 29.56 in1001.0 mb 0.00 in0.0 mm 0.00 in0.0 mm 0.00 in0.0 mm
08:30 AM 41.7°F5.4°C 35.4°F1.9°C 78% 5.5 mph SSE8.9 kmh SSE 14.0 mph22.5 kmh 29.56 in1001.0 mb 0.00 in0.0 mm 0.00 in0.0 mm 0.00 in0.0 mm
08:20 AM 41.7°F5.4°C 35.4°F1.9°C 78% 5.7 mph SSE9.2 kmh SSE 14.0 mph22.5 kmh 29.56 in1001.0 mb 0.00 in0.0 mm 0.00 in0.0 mm 0.00 in0.0 mm
08:10 AM 41.7°F5.4°C 35.4°F1.9°C 78% 5.9 mph SSE9.5 kmh SSE 16.5 mph26.6 kmh 29.56 in1001.0 mb 0.00 in0.0 mm 0.00 in0.0 mm 0.00 in0.0 mm
08:00 AM 41.7°F5.4°C 35.4°F1.9°C 78% 4.8 mph S7.7 kmh S 12.5 mph20.1 kmh 29.56 in1001.0 mb 0.00 in0.0 mm 0.00 in0.0 mm 0.00 in0.0 mm
07:50 AM 41.5°F5.3°C 35.2°F1.8°C 78% 4.9 mph SSE7.9 kmh SSE 10.0 mph16.1 kmh 29.56 in1001.0 mb 0.00 in0.0 mm 0.00 in0.0 mm 0.00 in0.0 mm
07:40 AM 41.5°F5.3°C 35.2°F1.8°C 78% 4.2 mph SE6.8 kmh SE 11.1 mph17.9 kmh 29.56 in1001.0 mb 0.00 in0.0 mm 0.00 in0.0 mm 0.00 in0.0 mm
07:30 AM 41.5°F5.3°C 35.2°F1.8°C 78% 5.5 mph SSE8.9 kmh SSE 14.0 mph22.5 kmh 29.56 in1001.0 mb 0.00 in0.0 mm 0.00 in0.0 mm 0.00 in0.0 mm
07:20 AM 41.5°F5.3°C 35.2°F1.8°C 78% 4.9 mph ESE7.9 kmh ESE 11.8 mph19.0 kmh 29.56 in1001.0 mb 0.00 in0.0 mm 0.00 in0.0 mm 0.00 in0.0 mm
07:10 AM 41.5°F5.3°C 35.2°F1.8°C 78% 4.4 mph SE7.1 kmh SE 11.1 mph17.9 kmh 29.56 in1001.0 mb 0.00 in0.0 mm 0.00 in0.0 mm 0.00 in0.0 mm
07:00 AM 41.5°F5.3°C 35.2°F1.8°C 78% 4.6 mph ESE7.4 kmh ESE 17.2 mph27.7 kmh 29.56 in1001.0 mb 0.00 in0.0 mm 0.00 in0.0 mm 0.00 in0.0 mm
06:50 AM 41.7°F5.4°C 35.4°F1.9°C 78% 6.3 mph SE10.1 kmh SE 19.7 mph31.7 kmh 29.56 in1001.0 mb 0.00 in0.0 mm 0.00 in0.0 mm 0.00 in0.0 mm
06:40 AM 41.7°F5.4°C 35.4°F1.9°C 78% 7.9 mph SE12.7 kmh SE 19.7 mph31.7 kmh 29.56 in1001.0 mb 0.00 in0.0 mm 0.00 in0.0 mm 0.00 in0.0 mm
06:30 AM 41.5°F5.3°C 35.2°F1.8°C 78% 7.4 mph ESE11.9 kmh ESE 16.5 mph26.6 kmh 29.56 in1001.0 mb 0.00 in0.0 mm 0.00 in0.0 mm 0.00 in0.0 mm
06:20 AM 41.7°F5.4°C 35.4°F1.9°C 78% 7.0 mph ESE11.3 kmh ESE 22.5 mph36.2 kmh 29.56 in1001.0 mb 0.00 in0.0 mm 0.00 in0.0 mm 0.00 in0.0 mm
06:10 AM 41.5°F5.3°C 35.2°F1.8°C 78% 9.2 mph ESE14.8 kmh ESE 19.3 mph31.1 kmh 29.56 in1001.0 mb 0.00 in0.0 mm 0.00 in0.0 mm 0.00 in0.0 mm
06:00 AM 41.5°F5.3°C 35.2°F1.8°C 78% 8.7 mph SE14.0 kmh SE 21.8 mph35.1 kmh 29.56 in1001.0 mb 0.00 in0.0 mm 0.00 in0.0 mm 0.00 in0.0 mm
05:50 AM 41.5°F5.3°C 34.9°F1.6°C 77% 8.7 mph ESE14.0 kmh ESE 16.5 mph26.6 kmh 29.56 in1001.0 mb 0.00 in0.0 mm 0.00 in0.0 mm 0.00 in0.0 mm
05:40 AM 41.5°F5.3°C 34.9°F1.6°C 77% 9.4 mph ESE15.1 kmh ESE 19.7 mph31.7 kmh 29.56 in1001.0 mb 0.00 in0.0 mm 0.00 in0.0 mm 0.00 in0.0 mm
05:30 AM 41.5°F5.3°C 34.9°F1.6°C 77% 7.5 mph ESE12.1 kmh ESE 14.0 mph22.5 kmh 29.59 in1002.0 mb 0.00 in0.0 mm 0.00 in0.0 mm 0.00 in0.0 mm
05:20 AM 41.5°F5.3°C 34.9°F1.6°C 77% 9.1 mph SE14.6 kmh SE 16.8 mph27.0 kmh 29.59 in1002.0 mb 0.00 in0.0 mm 0.00 in0.0 mm 0.00 in0.0 mm
05:10 AM 41.4°F5.2°C 34.7°F1.5°C 77% 6.9 mph E11.1 kmh E 16.1 mph25.9 kmh 29.59 in1002.0 mb 0.00 in0.0 mm 0.00 in0.0 mm 0.00 in0.0 mm
05:00 AM 41.4°F5.2°C 34.7°F1.5°C 77% 10.0 mph ESE16.1 kmh ESE 20.8 mph33.5 kmh 29.59 in1002.0 mb 0.00 in0.0 mm 0.00 in0.0 mm 0.00 in0.0 mm
04:50 AM 41.4°F5.2°C 34.7°F1.5°C 77% 7.6 mph ESE12.2 kmh ESE 17.5 mph28.2 kmh 29.59 in1002.0 mb 0.00 in0.0 mm 0.00 in0.0 mm 0.00 in0.0 mm
04:40 AM 41.4°F5.2°C 34.7°F1.5°C 77% 8.7 mph SE14.0 kmh SE 20.0 mph32.2 kmh 29.59 in1002.0 mb 0.00 in0.0 mm 0.00 in0.0 mm 0.00 in0.0 mm
04:30 AM 41.2°F5.1°C 34.5°F1.4°C 77% 8.9 mph ESE14.3 kmh ESE 20.0 mph32.2 kmh 29.62 in1003.0 mb 0.00 in0.0 mm 0.00 in0.0 mm 0.00 in0.0 mm
04:20 AM 41.2°F5.1°C 34.5°F1.4°C 77% 8.9 mph ESE14.3 kmh ESE 20.0 mph32.2 kmh 29.59 in1002.0 mb 0.00 in0.0 mm 0.00 in0.0 mm 0.00 in0.0 mm
04:10 AM 41.0°F5.0°C 34.3°F1.3°C 77% 10.0 mph ESE16.1 kmh ESE 20.8 mph33.5 kmh 29.59 in1002.0 mb 0.00 in0.0 mm 0.00 in0.0 mm 0.00 in0.0 mm
04:00 AM 41.0°F5.0°C 34.3°F1.3°C 77% 9.1 mph ESE14.6 kmh ESE 18.3 mph29.5 kmh 29.59 in1002.0 mb 0.00 in0.0 mm 0.00 in0.0 mm 0.00 in0.0 mm
03:50 AM 40.8°F4.9°C 34.5°F1.4°C 78% 8.6 mph E13.8 kmh E 20.4 mph32.8 kmh 29.59 in1002.0 mb 0.00 in0.0 mm 0.00 in0.0 mm 0.00 in0.0 mm
03:40 AM 40.8°F4.9°C 34.5°F1.4°C 78% 9.0 mph E14.5 kmh E 19.3 mph31.1 kmh 29.59 in1002.0 mb 0.00 in0.0 mm 0.00 in0.0 mm 0.00 in0.0 mm
03:30 AM 40.6°F4.8°C 34.6°F1.4°C 79% 8.0 mph E12.9 kmh E 15.4 mph24.8 kmh 29.59 in1002.0 mb 0.00 in0.0 mm 0.00 in0.0 mm 0.00 in0.0 mm
03:20 AM 40.6°F4.8°C 34.6°F1.4°C 79% 7.5 mph E12.1 kmh E 21.1 mph34.0 kmh 29.59 in1002.0 mb 0.00 in0.0 mm 0.00 in0.0 mm 0.00 in0.0 mm
03:10 AM 40.6°F4.8°C 34.6°F1.4°C 79% 8.6 mph E13.8 kmh E 21.5 mph34.6 kmh 29.59 in1002.0 mb 0.00 in0.0 mm 0.00 in0.0 mm 0.00 in0.0 mm
03:00 AM 40.5°F4.7°C 34.8°F1.6°C 80% 8.0 mph ESE12.9 kmh ESE 16.1 mph25.9 kmh 29.59 in1002.0 mb 0.00 in0.0 mm 0.00 in0.0 mm 0.00 in0.0 mm
02:50 AM 40.5°F4.7°C 34.8°F1.6°C 80% 6.8 mph ESE10.9 kmh ESE 14.0 mph22.5 kmh 29.59 in1002.0 mb 0.00 in0.0 mm 0.00 in0.0 mm 0.00 in0.0 mm
02:40 AM 40.5°F4.7°C 35.1°F1.7°C 81% 8.8 mph ESE14.2 kmh ESE 17.5 mph28.2 kmh 29.59 in1002.0 mb 0.00 in0.0 mm 0.00 in0.0 mm 0.00 in0.0 mm
02:30 AM 40.5°F4.7°C 35.4°F1.9°C 82% 7.7 mph SE12.4 kmh SE 20.8 mph33.5 kmh 29.62 in1003.0 mb 0.00 in0.0 mm 0.00 in0.0 mm 0.00 in0.0 mm
02:20 AM 40.3°F4.6°C 35.5°F1.9°C 83% 8.8 mph SE14.2 kmh SE 23.3 mph37.5 kmh 29.62 in1003.0 mb 0.00 in0.0 mm 0.00 in0.0 mm 0.00 in0.0 mm
02:10 AM 40.1°F4.5°C 35.4°F1.9°C 83% 7.9 mph ESE12.7 kmh ESE 16.1 mph25.9 kmh 29.62 in1003.0 mb 0.00 in0.0 mm 0.00 in0.0 mm 0.00 in0.0 mm
02:00 AM 39.9°F4.4°C 35.2°F1.8°C 83% 5.8 mph ESE9.3 kmh ESE 14.0 mph22.5 kmh 29.65 in1004.1 mb 0.00 in0.0 mm 0.00 in0.0 mm 0.00 in0.0 mm
01:50 AM 39.9°F4.4°C 35.2°F1.8°C 83% 7.0 mph ESE11.3 kmh ESE 15.7 mph25.3 kmh 29.65 in1004.1 mb 0.00 in0.0 mm 0.00 in0.0 mm 0.00 in0.0 mm
01:40 AM 39.9°F4.4°C 35.2°F1.8°C 83% 6.8 mph E10.9 kmh E 14.0 mph22.5 kmh 29.65 in1004.1 mb 0.00 in0.0 mm 0.00 in0.0 mm 0.00 in0.0 mm
01:30 AM 39.9°F4.4°C 35.2°F1.8°C 83% 6.0 mph ESE9.7 kmh ESE 12.9 mph20.8 kmh 29.68 in1005.1 mb 0.00 in0.0 mm 0.00 in0.0 mm 0.00 in0.0 mm
01:20 AM 39.9°F4.4°C 35.2°F1.8°C 83% 7.3 mph ESE11.7 kmh ESE 17.2 mph27.7 kmh 29.62 in1003.0 mb 0.00 in0.0 mm 0.00 in0.0 mm 0.00 in0.0 mm
01:10 AM 39.9°F4.4°C 35.5°F1.9°C 84% 6.5 mph ESE10.5 kmh ESE 13.6 mph21.9 kmh 29.62 in1003.0 mb 0.00 in0.0 mm 0.00 in0.0 mm 0.00 in0.0 mm
01:00 AM 39.7°F4.3°C 35.3°F1.8°C 84% 7.6 mph SE12.2 kmh SE 17.5 mph28.2 kmh 29.65 in1004.1 mb 0.00 in0.0 mm 0.00 in0.0 mm 0.00 in0.0 mm
12:50 AM 39.6°F4.2°C 35.1°F1.7°C 84% 6.4 mph SE10.3 kmh SE 16.8 mph27.0 kmh 29.65 in1004.1 mb 0.00 in0.0 mm 0.00 in0.0 mm 0.00 in0.0 mm
12:40 AM 39.4°F4.1°C 34.9°F1.6°C 84% 6.4 mph SE10.3 kmh SE 19.3 mph31.1 kmh 29.65 in1004.1 mb 0.00 in0.0 mm 0.00 in0.0 mm 0.00 in0.0 mm
12:30 AM 39.4°F4.1°C 34.9°F1.6°C 84% 6.1 mph SE9.8 kmh SE 15.4 mph24.8 kmh 29.68 in1005.1 mb 0.00 in0.0 mm 0.00 in0.0 mm 0.00 in0.0 mm
12:20 AM 39.4°F4.1°C 34.9°F1.6°C 84% 5.4 mph SE8.7 kmh SE 11.5 mph18.5 kmh 29.68 in1005.1 mb 0.00 in0.0 mm 0.00 in0.0 mm 0.00 in0.0 mm
12:10 AM 39.4°F4.1°C 35.2°F1.8°C 85% 5.6 mph SE9.0 kmh SE 12.2 mph19.6 kmh 29.68 in1005.1 mb 0.00 in0.0 mm 0.00 in0.0 mm 0.00 in0.0 mm
12:00 AM 39.4°F4.1°C 35.2°F1.8°C 85% 5.0 mph SE8.0 kmh SE 13.6 mph21.9 kmh 29.68 in1005.1 mb 0.00 in0.0 mm 0.00 in0.0 mm 0.00 in0.0 mm